Time;durP1;ratioP1;P1;durP2;ratioP2;P2;SDS_P1;SDS_P2;PMS_P1;PMS_P2;Temp;Humidity;BMP_temperature;BMP_pressure;BME280_temperature;BME280_humidity;BME280_pressure;Samples;Min_cycle;Max_cycle;Signal;HPM_P1;HPM_P2
2022/08/03 00:01:03;;;;;;;4.77;4.47;;;20.90;99.90;;;;;;5106973;28;20223;-64
2022/08/03 00:03:29;;;;;;;4.60;4.20;;;20.90;99.90;;;;;;5098977;28;20182;-64
2022/08/03 00:05:54;;;;;;;5.77;5.27;;;20.80;99.90;;;;;;5097004;28;20259;-65
2022/08/03 00:08:20;;;;;;;5.27;4.93;;;20.90;99.90;;;;;;5110489;28;20177;-64
2022/08/03 00:10:46;;;;;;;6.60;4.93;;;20.90;99.90;;;;;;5103703;28;20610;-65
2022/08/03 00:13:12;;;;;;;4.60;4.30;;;20.90;99.90;;;;;;5095609;28;20184;-64
2022/08/03 00:15:41;;;;;;;5.57;4.30;;;20.90;99.90;;;;;;5101876;28;20181;-65
2022/08/03 00:18:08;;;;;;;5.07;4.67;;;20.90;99.90;;;;;;5104797;28;20299;-65
2022/08/03 00:20:34;;;;;;;5.00;4.60;;;20.90;99.90;;;;;;5092842;28;20213;-64
2022/08/03 00:22:59;;;;;;;4.90;4.50;;;20.90;99.90;;;;;;5111392;28;20184;-65
2022/08/03 00:25:25;;;;;;;5.00;4.60;;;20.90;99.90;;;;;;5094238;28;20184;-64
2022/08/03 00:27:51;;;;;;;5.33;4.93;;;20.80;99.90;;;;;;5099450;28;20574;-64
2022/08/03 00:30:16;;;;;;;4.60;4.30;;;20.80;99.90;;;;;;5098761;28;20185;-64
2022/08/03 00:32:42;;;;;;;5.40;4.90;;;20.80;99.90;;;;;;5094333;28;20185;-65
2022/08/03 00:35:08;;;;;;;4.63;4.33;;;20.80;99.90;;;;;;5111090;28;20176;-65
2022/08/03 00:37:34;;;;;;;4.97;4.53;;;20.80;99.90;;;;;;5094105;28;20553;-65
2022/08/03 00:39:59;;;;;;;5.37;4.87;;;20.80;99.90;;;;;;5103524;28;20197;-63
2022/08/03 00:42:25;;;;;;;6.40;5.17;;;20.80;99.90;;;;;;5104174;28;20177;-63
2022/08/03 00:44:51;;;;;;;6.07;5.50;;;20.70;99.90;;;;;;5097941;28;20180;-63
2022/08/03 00:47:16;;;;;;;10.17;5.40;;;20.70;99.90;;;;;;5115355;28;20196;-63
2022/08/03 00:49:42;;;;;;;5.47;4.30;;;20.70;99.90;;;;;;5106531;28;20211;-64
2022/08/03 00:52:09;;;;;;;5.40;4.93;;;20.70;99.90;;;;;;5102088;28;20174;-63
2022/08/03 00:54:36;;;;;;;8.43;5.23;;;20.70;99.90;;;;;;5101820;28;20265;-62
2022/08/03 00:57:02;;;;;;;7.73;4.83;;;20.70;99.90;;;;;;5111014;28;20212;-61
2022/08/03 00:59:29;;;;;;;6.63;5.10;;;20.80;99.90;;;;;;5095235;28;20587;-63
2022/08/03 01:01:55;;;;;;;5.85;5.35;;;20.80;99.90;;;;;;5114082;28;20257;-64
2022/08/03 01:04:21;;;;;;;6.28;5.65;;;20.80;99.90;;;;;;5100247;28;20177;-64
2022/08/03 01:07:01;;;;;;;6.03;5.47;;;20.80;99.90;;;;;;5097223;28;20533;-63
2022/08/03 01:09:58;;;;;;;5.13;4.72;;;20.80;99.90;;;;;;5108227;28;20669;-64
2022/08/03 01:12:27;;;;;;;8.10;5.30;;;20.70;99.90;;;;;;5092738;28;20193;-64
2022/08/03 01:15:06;;;;;;;8.65;4.90;;;20.70;99.90;;;;;;5112317;28;20196;-64
2022/08/03 01:17:54;;;;;;;4.67;4.37;;;20.70;99.90;;;;;;5094761;28;20204;-64
2022/08/03 01:20:22;;;;;;;13.60;5.82;;;20.60;99.90;;;;;;5094621;28;20613;-65
2022/08/03 01:22:50;;;;;;;8.50;5.67;;;20.60;99.90;;;;;;5102688;28;20185;-65
2022/08/03 01:26:01;;;;;;;5.53;5.13;;;20.50;99.90;;;;;;5105955;28;20181;-65
2022/08/03 01:28:41;;;;;;;5.10;4.70;;;20.50;99.90;;;;;;5099626;28;20647;-66
2022/08/03 01:31:10;;;;;;;5.25;4.88;;;20.50;99.90;;;;;;5093752;28;20669;-65
2022/08/03 01:33:42;;;;;;;4.87;4.50;;;20.40;99.90;;;;;;5100717;28;20208;-65
2022/08/03 01:36:18;;;;;;;6.07;5.70;;;20.50;99.90;;;;;;5097124;28;20625;-65
2022/08/03 01:38:49;;;;;;;5.30;4.90;;;20.50;99.90;;;;;;5114035;27;20180;-64
2022/08/03 01:41:20;;;;;;;6.73;6.23;;;20.40;99.90;;;;;;5094444;28;20201;-65
2022/08/03 01:43:49;;;;;;;5.70;5.30;;;20.40;99.90;;;;;;5102037;28;20191;-65
2022/08/03 01:46:17;;;;;;;5.73;5.07;;;20.30;99.90;;;;;;5105949;28;20197;-65
2022/08/03 01:48:45;;;;;;;5.67;4.70;;;20.30;99.90;;;;;;5106308;28;20239;-65
2022/08/03 01:51:12;;;;;;;5.77;5.37;;;20.30;99.90;;;;;;5097040;28;20279;-65
2022/08/03 01:53:43;;;;;;;4.97;4.57;;;20.30;99.90;;;;;;5113038;28;20219;-66
2022/08/03 01:56:09;;;;;;;5.40;5.00;;;20.20;99.90;;;;;;5094808;28;20982;-64
2022/08/03 01:58:36;;;;;;;4.95;4.50;;;20.20;99.90;;;;;;5108011;28;20538;-64
2022/08/03 02:01:04;;;;;;;8.10;5.00;;;20.20;99.90;;;;;;5105196;28;20216;-66
2022/08/03 02:03:33;;;;;;;6.03;4.73;;;20.30;99.90;;;;;;5108368;28;20695;-66
2022/08/03 02:05:59;;;;;;;5.60;5.10;;;20.20;99.90;;;;;;5094289;28;20173;-64
2022/08/03 02:08:27;;;;;;;6.27;5.67;;;20.20;99.90;;;;;;5113631;28;20546;-65
2022/08/03 02:10:56;;;;;;;5.30;4.90;;;20.20;99.90;;;;;;5097194;28;20590;-65
2022/08/03 02:13:23;;;;;;;5.50;5.00;;;20.10;99.90;;;;;;5105384;28;20180;-66
2022/08/03 02:15:51;;;;;;;9.60;4.93;;;20.10;99.90;;;;;;5105294;28;20189;-65
2022/08/03 02:18:18;;;;;;;5.93;5.50;;;19.90;99.90;;;;;;5110211;28;20209;-65
2022/08/03 02:20:45;;;;;;;8.97;5.07;;;19.90;99.90;;;;;;5105370;28;21589;-66
2022/08/03 02:23:13;;;;;;;5.70;4.60;;;19.90;99.90;;;;;;5093594;28;20562;-65
2022/08/03 02:25:44;;;;;;;5.17;4.77;;;19.80;99.90;;;;;;5106807;28;20591;-66
2022/08/03 02:28:15;;;;;;;5.70;5.30;;;19.80;99.90;;;;;;5104368;28;20537;-65
2022/08/03 02:30:44;;;;;;;6.07;5.57;;;19.70;99.90;;;;;;5104427;28;20173;-65
2022/08/03 02:33:20;;;;;;;6.17;5.67;;;19.70;99.90;;;;;;5093540;28;20258;-66
2022/08/03 02:35:48;;;;;;;5.63;5.10;;;19.60;99.90;;;;;;5108300;28;20227;-63
2022/08/03 02:38:15;;;;;;;5.83;5.30;;;19.50;99.90;;;;;;5101327;28;20263;-64
2022/08/03 02:40:43;;;;;;;5.87;5.20;;;19.50;99.90;;;;;;5092877;28;20197;-66
2022/08/03 02:43:14;;;;;;;6.03;5.03;;;19.40;99.90;;;;;;5108980;28;20177;-66
2022/08/03 02:45:46;;;;;;;5.50;5.00;;;19.40;99.90;;;;;;5104443;28;20169;-65
2022/08/03 02:48:16;;;;;;;5.60;5.20;;;19.30;99.90;;;;;;5104971;28;20177;-64
2022/08/03 02:50:44;;;;;;;6.47;5.83;;;19.30;99.90;;;;;;5101466;28;20275;-64
2022/08/03 02:53:11;;;;;;;8.33;5.37;;;19.30;99.90;;;;;;5100148;28;20184;-66
2022/08/03 02:55:38;;;;;;;5.53;5.03;;;19.30;99.90;;;;;;5095220;28;20553;-65
2022/08/03 02:58:05;;;;;;;8.80;5.00;;;19.30;99.90;;;;;;5097840;28;20284;-66
2022/08/03 03:00:32;;;;;;;5.37;4.93;;;19.30;99.90;;;;;;5099395;28;20201;-65
2022/08/03 03:03:00;;;;;;;5.50;5.00;;;19.30;99.90;;;;;;5101180;28;20184;-65
2022/08/03 03:05:26;;;;;;;6.13;5.40;;;19.30;99.90;;;;;;5092054;28;20184;-65
2022/08/03 03:07:53;;;;;;;5.77;5.27;;;19.30;99.90;;;;;;5107800;28;20197;-65
2022/08/03 03:10:21;;;;;;;5.77;5.13;;;19.30;99.90;;;;;;5108536;28;20248;-65
2022/08/03 03:12:50;;;;;;;6.53;5.00;;;19.20;99.90;;;;;;5100664;28;20182;-64
2022/08/03 03:15:15;;;;;;;5.23;4.83;;;19.20;99.90;;;;;;5100237;28;20173;-65
2022/08/03 03:17:43;;;;;;;6.03;5.43;;;19.20;99.90;;;;;;5094387;28;20200;-66
2022/08/03 03:20:09;;;;;;;6.60;5.90;;;19.20;99.90;;;;;;5112051;28;20490;-65
2022/08/03 03:22:36;;;;;;;6.07;5.50;;;19.10;99.90;;;;;;5094196;28;20193;-64
2022/08/03 03:25:02;;;;;;;5.77;5.37;;;19.10;99.90;;;;;;5105061;28;20204;-65
2022/08/03 03:27:29;;;;;;;5.77;5.23;;;19.10;99.90;;;;;;5103683;28;20220;-66
2022/08/03 03:29:55;;;;;;;5.87;5.37;;;19.10;99.90;;;;;;5095826;28;20634;-65
2022/08/03 03:32:21;;;;;;;7.17;6.50;;;19.10;99.90;;;;;;5104303;28;20187;-65
2022/08/03 03:34:47;;;;;;;7.13;6.23;;;19.10;99.90;;;;;;5110415;28;20173;-66
2022/08/03 03:37:12;;;;;;;6.47;5.87;;;19.00;99.90;;;;;;5110595;28;20254;-66
2022/08/03 03:39:38;;;;;;;6.40;5.87;;;19.10;99.90;;;;;;5102335;28;20181;-65
2022/08/03 03:42:04;;;;;;;7.17;5.70;;;19.00;99.90;;;;;;5096290;28;20205;-65
2022/08/03 03:44:30;;;;;;;6.00;5.50;;;19.00;99.90;;;;;;5111327;28;20188;-65
2022/08/03 03:46:59;;;;;;;6.53;5.97;;;19.00;99.90;;;;;;5111315;28;20195;-65
2022/08/03 03:49:25;;;;;;;5.60;5.20;;;19.00;99.90;;;;;;5096443;28;20169;-65
2022/08/03 03:51:54;;;;;;;6.77;6.17;;;19.00;99.90;;;;;;5099807;28;20189;-65
2022/08/03 03:54:20;;;;;;;6.23;5.80;;;19.00;99.90;;;;;;5097600;28;20184;-64
2022/08/03 03:56:46;;;;;;;6.93;6.33;;;19.00;99.90;;;;;;5109923;28;20334;-65
2022/08/03 03:59:11;;;;;;;6.17;5.67;;;18.90;99.90;;;;;;5092026;28;20181;-66
2022/08/03 04:01:38;;;;;;;6.87;6.17;;;18.90;99.90;;;;;;5108073;28;20215;-66
2022/08/03 04:12:23;;;;;;;6.00;5.57;;;19.00;99.90;;;;;;5106516;28;20626;-66
2022/08/03 04:14:51;;;;;;;5.80;5.30;;;19.00;99.90;;;;;;5092357;28;20239;-64
2022/08/03 04:17:18;;;;;;;6.10;5.60;;;19.00;99.90;;;;;;5106552;28;20237;-66
2022/08/03 04:19:51;;;;;;;7.90;5.50;;;19.10;99.90;;;;;;5107967;28;20203;-66
2022/08/03 04:22:22;;;;;;;7.00;5.30;;;19.10;99.90;;;;;;5098834;28;20617;-66
2022/08/03 04:24:58;;;;;;;6.37;5.77;;;19.10;99.90;;;;;;5099992;28;20219;-64
2022/08/03 04:27:29;;;;;;;6.07;5.57;;;19.10;99.90;;;;;;5103053;28;20217;-65
2022/08/03 04:29:56;;;;;;;6.43;5.80;;;19.20;99.90;;;;;;5109685;28;20514;-65
2022/08/03 04:32:25;;;;;;;8.07;6.07;;;19.20;99.90;;;;;;5092137;28;20298;-65
2022/08/03 04:34:51;;;;;;;6.50;5.83;;;19.30;99.90;;;;;;5107905;28;20536;-64
2022/08/03 04:37:40;;;;;;;6.43;5.93;;;19.30;99.90;;;;;;5099018;28;20189;-65
2022/08/03 04:40:09;;;;;;;6.80;6.30;;;19.40;99.90;;;;;;5101724;28;20215;-63
2022/08/03 04:42:37;;;;;;;7.10;6.50;;;19.40;99.90;;;;;;5104671;28;20542;-65
2022/08/03 04:45:04;;;;;;;6.47;5.87;;;19.50;99.90;;;;;;5099116;28;20176;-65
2022/08/03 04:47:32;;;;;;;6.97;6.37;;;19.60;99.90;;;;;;5091245;28;20198;-64
2022/08/03 04:50:00;;;;;;;6.33;5.87;;;19.70;99.90;;;;;;5108460;28;20646;-64
2022/08/03 04:52:26;;;;;;;6.10;5.50;;;19.80;99.90;;;;;;5098076;28;20181;-64
2022/08/03 04:54:52;;;;;;;5.83;5.20;;;19.90;99.90;;;;;;5098689;28;20657;-64
2022/08/03 04:57:18;;;;;;;6.70;6.13;;;20.00;99.90;;;;;;5107421;28;20565;-65
2022/08/03 04:59:44;;;;;;;6.30;5.80;;;20.10;99.90;;;;;;5097863;28;20181;-65
2022/08/03 05:02:09;;;;;;;6.93;6.40;;;20.10;99.90;;;;;;5094052;28;20177;-65
2022/08/03 05:04:36;;;;;;;7.67;6.07;;;20.20;99.90;;;;;;5096814;28;20177;-66
2022/08/03 05:07:02;;;;;;;6.57;5.97;;;20.20;99.90;;;;;;5100213;28;20287;-66
2022/08/03 05:09:28;;;;;;;8.40;6.40;;;20.20;99.90;;;;;;5106386;28;20315;-66
2022/08/03 05:11:54;;;;;;;7.50;6.37;;;20.20;99.90;;;;;;5091195;28;20173;-65
2022/08/03 05:14:20;;;;;;;8.70;6.67;;;20.20;99.90;;;;;;5110137;28;20173;-64
2022/08/03 05:16:45;;;;;;;6.50;5.87;;;20.20;99.90;;;;;;5095604;28;20228;-66
2022/08/03 05:19:11;;;;;;;6.63;6.13;;;20.30;99.90;;;;;;5100990;28;20176;-66
2022/08/03 05:21:37;;;;;;;6.23;5.70;;;20.30;99.90;;;;;;5104946;28;20208;-66
2022/08/03 05:24:02;;;;;;;6.63;5.70;;;20.40;99.90;;;;;;5109608;28;20188;-66
2022/08/03 05:26:28;;;;;;;7.40;5.63;;;20.50;99.90;;;;;;5090832;28;20200;-65
2022/08/03 05:28:54;;;;;;;6.67;5.70;;;20.60;99.90;;;;;;5109443;28;20519;-65
2022/08/03 05:31:19;;;;;;;5.97;5.47;;;20.70;99.90;;;;;;5103422;28;20280;-66
2022/08/03 05:33:47;;;;;;;5.70;5.20;;;20.70;99.90;;;;;;5100227;28;20506;-66
2022/08/03 05:36:13;;;;;;;6.63;5.90;;;20.70;99.90;;;;;;5112464;28;20253;-66
2022/08/03 05:38:38;;;;;;;7.18;5.80;;;20.80;99.90;;;;;;5099158;28;20177;-66
2022/08/03 05:41:04;;;;;;;6.60;6.10;;;20.80;99.90;;;;;;5097629;28;20212;-65
2022/08/03 05:43:30;;;;;;;6.37;5.80;;;20.90;99.90;;;;;;5105548;28;20173;-66
2022/08/03 05:45:57;;;;;;;6.33;5.70;;;21.10;99.90;;;;;;5106938;28;20226;-66
2022/08/03 05:48:22;;;;;;;9.07;5.60;;;21.20;99.90;;;;;;5096402;28;20172;-65
2022/08/03 05:50:48;;;;;;;5.88;5.40;;;21.40;99.90;;;;;;5108226;28;20666;-66
2022/08/03 05:53:14;;;;;;;6.90;6.40;;;21.70;99.90;;;;;;5111635;28;20245;-64
2022/08/03 05:55:39;;;;;;;7.90;6.95;;;22.00;99.90;;;;;;5101066;28;20189;-65
2022/08/03 05:58:05;;;;;;;8.30;5.78;;;22.40;99.90;;;;;;5102126;28;20201;-65
2022/08/03 06:00:30;;;;;;;6.18;5.57;;;22.90;99.90;;;;;;5110468;28;20220;-66
2022/08/03 06:02:56;;;;;;;5.85;5.30;;;23.20;99.90;;;;;;5093950;28;20651;-66
2022/08/03 06:05:21;;;;;;;7.00;5.32;;;23.40;99.90;;;;;;5111543;28;20173;-66
2022/08/03 06:07:47;;;;;;;5.95;5.40;;;23.50;99.90;;;;;;5100122;28;20807;-65
2022/08/03 06:10:13;;;;;;;6.82;6.13;;;23.50;99.90;;;;;;5102356;28;20199;-65
2022/08/03 06:12:40;;;;;;;12.55;6.35;;;23.50;99.90;;;;;;5108820;28;20173;-66
2022/08/03 06:15:06;;;;;;;10.13;5.22;;;23.70;99.90;;;;;;5100358;28;20175;-65
2022/08/03 06:17:31;;;;;;;5.97;5.38;;;24.00;99.90;;;;;;5094451;28;20201;-65
2022/08/03 06:19:57;;;;;;;6.07;4.88;;;24.40;99.90;;;;;;5107190;28;20566;-66
2022/08/03 06:22:23;;;;;;;8.80;5.03;;;24.80;99.90;;;;;;5104241;28;20298;-66
2022/08/03 06:24:48;;;;;;;5.03;4.53;;;25.20;99.90;;;;;;5097253;28;20672;-66
2022/08/03 06:27:15;;;;;;;5.28;4.22;;;25.70;99.90;;;;;;5103469;28;20198;-66
2022/08/03 06:29:40;;;;;;;7.00;5.25;;;26.10;99.90;;;;;;5110066;28;20181;-66
2022/08/03 06:32:06;;;;;;;4.95;4.40;;;26.30;99.90;;;;;;5102214;28;20177;-65
2022/08/03 06:34:32;;;;;;;4.93;4.38;;;26.50;99.90;;;;;;5113147;28;20548;-63
2022/08/03 06:36:57;;;;;;;4.30;3.90;;;26.80;99.90;;;;;;5112609;28;20199;-65
2022/08/03 06:39:23;;;;;;;6.75;4.22;;;27.20;99.90;;;;;;5104097;28;20215;-64
2022/08/03 06:41:48;;;;;;;5.03;3.83;;;27.60;99.90;;;;;;5096438;28;20291;-65
2022/08/03 06:44:14;;;;;;;4.55;4.25;;;28.00;99.90;;;;;;5112509;28;20169;-65
2022/08/03 06:46:41;;;;;;;6.22;3.97;;;28.40;99.90;;;;;;5103883;28;20204;-65
2022/08/03 06:49:07;;;;;;;6.53;4.20;;;28.50;99.90;;;;;;5104597;28;20641;-64
2022/08/03 06:51:32;;;;;;;4.57;4.18;;;28.80;99.90;;;;;;5103242;28;20197;-64
2022/08/03 06:53:58;;;;;;;4.78;3.97;;;29.00;99.90;;;;;;5097342;28;20200;-63
2022/08/03 06:56:23;;;;;;;4.43;4.03;;;29.40;99.90;;;;;;5112079;28;20208;-64
2022/08/03 06:58:49;;;;;;;5.72;3.53;;;29.80;99.90;;;;;;5092921;28;20181;-64
2022/08/03 07:01:14;;;;;;;4.25;3.85;;;30.30;99.90;;;;;;5107370;28;20740;-65
2022/08/03 07:03:40;;;;;;;4.82;3.50;;;30.50;99.90;;;;;;5101999;28;20257;-64
2022/08/03 07:06:06;;;;;;;9.20;4.03;;;30.60;99.90;;;;;;5097624;28;20185;-64
2022/08/03 07:08:32;;;;;;;3.17;2.97;;;30.70;99.90;;;;;;5095798;28;20182;-64
2022/08/03 07:10:57;;;;;;;6.95;3.85;;;31.10;99.90;;;;;;5112861;28;20188;-64
2022/08/03 07:13:23;;;;;;;4.18;3.78;;;31.20;99.90;;;;;;5096176;27;20260;-66
2022/08/03 07:15:49;;;;;;;4.80;3.67;;;31.50;99.90;;;;;;5103137;28;20173;-65
2022/08/03 07:18:14;;;;;;;3.35;3.10;;;31.80;99.90;;;;;;5106188;28;20223;-63
2022/08/03 07:20:41;;;;;;;4.15;2.90;;;31.80;99.90;;;;;;5109588;28;20204;-64
2022/08/03 07:23:06;;;;;;;6.18;3.97;;;31.80;99.90;;;;;;5092553;28;20307;-64
2022/08/03 07:25:32;;;;;;;7.63;3.83;;;32.20;99.90;;;;;;5100175;28;20264;-64
2022/08/03 07:27:57;;;;;;;4.25;3.30;;;32.30;99.90;;;;;;5103191;28;20204;-64
2022/08/03 07:30:23;;;;;;;6.05;3.63;;;32.80;99.90;;;;;;5105196;28;20244;-64
2022/08/03 07:32:49;;;;;;;3.75;3.10;;;32.70;99.90;;;;;;5099719;28;20184;-64
2022/08/03 07:35:14;;;;;;;3.72;3.40;;;32.80;99.90;;;;;;5091982;28;20634;-64
2022/08/03 07:37:40;;;;;;;6.47;3.40;;;33.10;99.90;;;;;;5107695;28;20242;-65
2022/08/03 07:40:06;;;;;;;9.00;3.95;;;33.30;99.90;;;;;;5100146;28;20638;-65
2022/08/03 07:42:32;;;;;;;10.15;4.28;;;33.50;99.90;;;;;;5098529;28;20188;-65
2022/08/03 07:44:58;;;;;;;5.82;3.60;;;33.60;99.90;;;;;;5094637;28;20186;-64
2022/08/03 07:47:27;;;;;;;5.28;3.10;;;34.00;99.90;;;;;;5111925;28;20209;-64
2022/08/03 07:49:52;;;;;;;7.80;3.22;;;34.20;99.90;;;;;;5094661;28;20177;-65
2022/08/03 07:55:05;;;;;;;6.35;3.42;;;34.90;99.90;;;;;;5101280;28;20702;-65
2022/08/03 07:57:31;;;;;;;4.63;3.00;;;35.10;99.90;;;;;;5106091;28;20193;-65
2022/08/03 07:59:56;;;;;;;4.18;3.03;;;35.50;99.90;;;;;;5091720;28;20180;-65
2022/08/03 08:02:22;;;;;;;8.18;3.67;;;35.70;99.90;;;;;;5097747;28;20177;-66
2022/08/03 08:04:47;;;;;;;4.20;3.03;;;35.70;99.90;;;;;;5106690;28;20231;-66
2022/08/03 08:07:13;;;;;;;4.95;3.08;;;35.80;99.90;;;;;;5110068;28;20293;-65
2022/08/03 08:09:39;;;;;;;6.05;3.22;;;35.90;99.90;;;;;;5106041;28;20201;-65
2022/08/03 08:12:06;;;;;;;5.75;2.70;;;36.20;99.90;;;;;;5091798;28;20215;-64
2022/08/03 08:14:32;;;;;;;4.50;2.90;;;36.60;99.90;;;;;;5110876;28;20184;-66
2022/08/03 08:16:58;;;;;;;5.53;2.70;;;36.60;99.90;;;;;;5096095;28;20604;-66
2022/08/03 08:19:24;;;;;;;3.92;2.70;;;36.80;99.90;;;;;;5100872;28;20233;-66
2022/08/03 08:21:49;;;;;;;4.30;2.40;;;36.80;99.90;;;;;;5096993;28;20211;-64
2022/08/03 08:24:15;;;;;;;5.60;2.50;;;36.80;99.90;;;;;;5110600;28;20593;-64
2022/08/03 08:26:41;;;;;;;6.30;2.72;;;36.60;99.90;;;;;;5091290;28;20193;-64
2022/08/03 08:29:06;;;;;;;3.88;2.63;;;36.40;99.90;;;;;;5099815;28;20675;-67
2022/08/03 08:31:32;;;;;;;6.70;2.50;;;36.40;99.90;;;;;;5100481;28;20182;-64
2022/08/03 08:33:58;;;;;;;2.30;2.15;;;36.40;99.90;;;;;;5096360;28;20177;-63
2022/08/03 08:36:23;;;;;;;6.13;2.83;;;36.60;99.90;;;;;;5109300;28;20204;-64
2022/08/03 08:38:49;;;;;;;2.60;2.40;;;36.80;99.90;;;;;;5097094;28;20177;-64
2022/08/03 08:41:15;;;;;;;7.30;2.80;;;36.90;99.90;;;;;;5111124;28;20734;-65
2022/08/03 08:43:41;;;;;;;2.80;2.53;;;37.00;99.90;;;;;;5092840;28;20177;-64
2022/08/03 08:46:10;;;;;;;3.55;2.58;;;36.90;99.90;;;;;;5104046;28;20184;-66
2022/08/03 08:48:40;;;;;;;2.97;2.75;;;36.70;99.90;;;;;;5102739;28;20177;-64
2022/08/03 08:51:08;;;;;;;4.57;2.80;;;36.60;99.90;;;;;;5095198;28;20185;-64
2022/08/03 08:53:36;;;;;;;2.80;2.60;;;36.70;99.90;;;;;;5110751;28;20187;-64
2022/08/03 08:56:02;;;;;;;2.80;2.60;;;36.70;99.90;;;;;;5102554;28;20209;-64
2022/08/03 08:58:33;;;;;;;3.63;2.67;;;36.50;99.90;;;;;;5096702;28;20603;-64
2022/08/03 09:00:59;;;;;;;3.00;2.67;;;36.80;99.90;;;;;;5101636;28;20204;-65
2022/08/03 09:03:25;;;;;;;7.13;2.70;;;36.90;99.90;;;;;;5108266;28;20619;-65
2022/08/03 09:05:51;;;;;;;5.35;2.50;;;36.90;99.90;;;;;;5095130;28;20181;-64
2022/08/03 09:08:17;;;;;;;2.53;2.33;;;37.10;99.90;;;;;;5095293;28;20169;-62
2022/08/03 09:10:43;;;;;;;3.28;2.33;;;37.30;99.90;;;;;;5109540;28;20264;-63
2022/08/03 09:13:08;;;;;;;8.80;2.50;;;37.40;99.20;;;;;;5106129;28;20189;-64
2022/08/03 09:15:34;;;;;;;3.40;2.22;;;37.30;99.90;;;;;;5110108;28;20223;-63
2022/08/03 09:18:03;;;;;;;8.20;2.60;;;37.40;99.70;;;;;;5094963;28;20689;-63
2022/08/03 09:20:33;;;;;;;3.03;2.72;;;37.30;97.70;;;;;;5113788;28;20572;-64
2022/08/03 09:23:07;;;;;;;4.88;2.45;;;36.80;98.10;;;;;;5099854;28;20307;-65
2022/08/03 09:25:36;;;;;;;5.60;3.22;;;36.90;99.70;;;;;;5095547;28;20165;-64
2022/08/03 09:28:05;;;;;;;3.60;2.58;;;37.00;99.00;;;;;;5100927;28;20200;-63
2022/08/03 09:30:31;;;;;;;5.35;2.63;;;37.10;98.80;;;;;;5112180;28;20184;-64
2022/08/03 09:33:07;;;;;;;2.80;2.60;;;37.20;98.60;;;;;;5107676;28;20630;-65
2022/08/03 09:35:42;;;;;;;6.63;2.60;;;37.20;98.00;;;;;;5097133;28;20189;-65
2022/08/03 09:38:13;;;;;;;3.25;2.78;;;37.10;99.00;;;;;;5108506;28;20172;-65
2022/08/03 09:40:39;;;;;;;3.53;2.63;;;37.10;97.60;;;;;;5104257;28;20201;-65
2022/08/03 09:43:07;;;;;;;3.35;2.40;;;37.30;97.90;;;;;;5099112;28;20180;-65
2022/08/03 09:45:34;;;;;;;3.85;3.20;;;36.90;97.40;;;;;;5112364;28;20263;-64
2022/08/03 09:48:19;;;;;;;4.72;2.45;;;36.70;97.30;;;;;;5094457;28;20205;-65
2022/08/03 09:50:52;;;;;;;4.45;2.33;;;37.00;98.90;;;;;;5102209;28;20196;-66
2022/08/03 09:53:18;;;;;;;5.80;2.67;;;37.20;97.80;;;;;;5107427;28;20662;-65
2022/08/03 09:55:55;;;;;;;3.10;2.40;;;37.30;97.20;;;;;;5103420;28;20185;-65
2022/08/03 09:58:22;;;;;;;2.90;2.60;;;37.30;97.30;;;;;;5098823;28;20184;-64
2022/08/03 10:01:03;;;;;;;4.88;2.60;;;37.40;97.20;;;;;;5113519;28;20300;-65
2022/08/03 10:03:33;;;;;;;6.93;2.75;;;37.30;97.20;;;;;;5093696;28;20209;-65
2022/08/03 10:06:14;;;;;;;6.00;2.20;;;37.60;98.20;;;;;;5095244;28;20543;-65
2022/08/03 10:08:40;;;;;;;2.72;2.47;;;37.90;97.60;;;;;;5102159;28;20544;-65
2022/08/03 10:11:05;;;;;;;8.55;3.03;;;37.70;96.00;;;;;;5103045;28;20185;-64
2022/08/03 10:13:31;;;;;;;4.55;2.60;;;37.60;96.70;;;;;;5107530;28;20242;-64
2022/08/03 10:15:57;;;;;;;2.42;2.22;;;37.50;96.20;;;;;;5093864;28;20521;-65
2022/08/03 10:18:22;;;;;;;3.95;2.20;;;37.60;96.90;;;;;;5112526;28;20178;-65
2022/08/03 10:20:50;;;;;;;3.20;2.50;;;37.90;97.30;;;;;;5099724;28;20209;-65
2022/08/03 10:23:17;;;;;;;2.13;1.95;;;38.00;97.30;;;;;;5101754;28;20187;-64
2022/08/03 10:25:46;;;;;;;2.78;2.53;;;38.30;96.70;;;;;;5097227;28;20181;-65
2022/08/03 10:28:15;;;;;;;4.00;2.70;;;38.40;94.80;;;;;;5096241;28;20608;-64
2022/08/03 10:30:46;;;;;;;2.90;2.60;;;38.30;96.70;;;;;;5112670;28;20169;-64
2022/08/03 10:33:26;;;;;;;6.93;2.90;;;38.20;95.30;;;;;;5102252;28;20231;-64
2022/08/03 10:35:55;;;;;;;2.53;2.33;;;37.90;95.20;;;;;;5093610;28;20173;-63
2022/08/03 10:38:28;;;;;;;6.53;2.80;;;37.50;95.80;;;;;;5101237;28;20187;-64
2022/08/03 10:40:55;;;;;;;7.35;2.42;;;37.60;95.80;;;;;;5097009;28;20666;-64
2022/08/03 10:43:24;;;;;;;3.38;2.40;;;37.70;96.40;;;;;;5112992;28;20173;-64
2022/08/03 10:45:50;;;;;;;2.47;2.38;;;37.80;94.10;;;;;;5094733;28;20256;-63
2022/08/03 10:48:17;;;;;;;7.53;2.65;;;37.60;93.50;;;;;;5107486;28;20173;-64
2022/08/03 10:50:44;;;;;;;4.22;2.30;;;37.30;93.00;;;;;;5103368;28;20192;-64
2022/08/03 10:53:09;;;;;;;4.07;2.75;;;37.10;94.00;;;;;;5097508;28;20181;-64
2022/08/03 10:58:53;;;;;;;5.32;2.50;;;37.00;93.40;;;;;;5102256;28;20314;-63
2022/08/03 11:01:55;;;;;;;2.40;2.20;;;37.10;92.80;;;;;;5093937;28;20292;-64
2022/08/03 11:04:23;;;;;;;3.05;2.40;;;37.00;96.60;;;;;;5100797;28;20200;-63
2022/08/03 11:07:24;;;;;;;2.33;2.22;;;37.20;92.00;;;;;;5108642;28;20196;-64
2022/08/03 11:09:54;;;;;;;2.58;2.40;;;37.30;93.20;;;;;;5108682;28;20186;-64
2022/08/03 11:12:21;;;;;;;5.03;2.30;;;37.50;92.50;;;;;;5103955;28;20565;-64
2022/08/03 11:14:48;;;;;;;2.65;2.35;;;37.30;92.70;;;;;;5105375;28;20204;-65
2022/08/03 11:17:14;;;;;;;2.60;2.35;;;37.20;92.60;;;;;;5095147;28;20339;-65
2022/08/03 11:19:47;;;;;;;2.63;2.42;;;36.60;92.90;;;;;;5112345;28;20983;-65
2022/08/03 11:22:14;;;;;;;4.38;2.40;;;36.30;92.90;;;;;;5103705;28;20200;-65
2022/08/03 11:24:56;;;;;;;3.20;2.20;;;36.50;93.10;;;;;;5098935;28;20627;-64
2022/08/03 11:27:26;;;;;;;2.55;2.20;;;36.70;93.80;;;;;;5101899;28;20203;-64
2022/08/03 11:29:58;;;;;;;4.57;2.55;;;37.40;93.20;;;;;;5106562;28;20177;-64
2022/08/03 11:32:36;;;;;;;5.47;2.45;;;37.80;91.90;;;;;;5093346;28;20174;-64
2022/08/03 11:35:18;;;;;;;3.47;1.90;;;38.00;91.80;;;;;;5104232;28;20177;-65
2022/08/03 11:37:55;;;;;;;5.35;2.90;;;37.90;90.50;;;;;;5102826;28;20193;-64
2022/08/03 11:40:46;;;;;;;4.80;2.75;;;37.80;91.10;;;;;;5100330;28;20204;-64
2022/08/03 11:43:20;;;;;;;2.45;2.25;;;38.00;90.80;;;;;;5092367;28;20169;-64
2022/08/03 11:45:56;;;;;;;2.80;2.47;;;37.70;90.60;;;;;;5095132;28;20172;-64
2022/08/03 11:48:27;;;;;;;3.13;2.80;;;37.10;90.30;;;;;;5110459;28;20164;-64
2022/08/03 11:50:53;;;;;;;5.75;2.42;;;36.80;90.50;;;;;;5104130;28;20177;-64
2022/08/03 11:53:18;;;;;;;2.75;2.13;;;36.70;90.60;;;;;;5103540;28;20177;-63
2022/08/03 11:55:47;;;;;;;2.90;2.30;;;36.50;92.30;;;;;;5108840;28;20877;-66
2022/08/03 11:58:21;;;;;;;2.80;2.30;;;36.50;90.70;;;;;;5098058;28;20180;-65
2022/08/03 12:00:48;;;;;;;2.88;2.67;;;36.40;91.70;;;;;;5092678;28;20197;-63
2022/08/03 12:03:16;;;;;;;6.20;3.00;;;36.30;93.40;;;;;;5106229;28;20169;-64
2022/08/03 12:05:50;;;;;;;2.67;2.47;;;36.00;90.60;;;;;;5101594;28;20509;-64
2022/08/03 12:08:31;;;;;;;2.78;2.10;;;35.80;93.10;;;;;;5097538;28;20717;-65
2022/08/03 12:10:59;;;;;;;2.72;2.53;;;35.90;95.30;;;;;;5108584;28;20177;-65
2022/08/03 12:13:25;;;;;;;2.42;2.22;;;36.30;92.50;;;;;;5091657;28;20177;-66
2022/08/03 12:15:53;;;;;;;3.63;2.75;;;36.70;93.10;;;;;;5107814;28;20207;-63
2022/08/03 12:18:20;;;;;;;2.40;2.20;;;36.60;91.40;;;;;;5105349;28;20184;-64
2022/08/03 12:20:50;;;;;;;2.30;2.20;;;36.50;90.40;;;;;;5101760;28;20257;-65
2022/08/03 12:23:17;;;;;;;2.50;2.30;;;36.70;91.40;;;;;;5096432;28;20172;-63
2022/08/03 12:25:44;;;;;;;2.35;2.20;;;36.70;90.90;;;;;;5110530;28;20646;-63
2022/08/03 12:28:17;;;;;;;4.30;2.33;;;36.90;91.00;;;;;;5092563;28;20177;-65
2022/08/03 12:30:47;;;;;;;3.63;2.60;;;37.00;91.40;;;;;;5107537;28;20660;-65
2022/08/03 12:33:19;;;;;;;2.50;2.30;;;37.00;91.70;;;;;;5103212;28;20539;-65
2022/08/03 12:35:47;;;;;;;3.38;2.33;;;37.50;92.40;;;;;;5103050;28;20250;-65
2022/08/03 12:38:17;;;;;;;2.72;2.03;;;37.80;90.50;;;;;;5111719;28;20170;-65
2022/08/03 12:40:43;;;;;;;4.97;2.20;;;38.10;92.80;;;;;;5095585;28;20554;-64
2022/08/03 12:43:13;;;;;;;2.08;1.98;;;38.00;89.10;;;;;;5114326;28;20192;-65
2022/08/03 12:45:38;;;;;;;2.40;2.20;;;38.10;88.70;;;;;;5105960;28;20192;-65
2022/08/03 12:48:08;;;;;;;4.28;2.42;;;38.20;88.30;;;;;;5105067;28;20201;-64
2022/08/03 12:50:36;;;;;;;2.75;2.35;;;38.30;91.60;;;;;;5099954;28;20184;-64
2022/08/03 12:53:04;;;;;;;4.28;2.17;;;38.60;88.30;;;;;;5097056;28;20180;-63
2022/08/03 12:55:33;;;;;;;2.63;2.42;;;38.60;88.50;;;;;;5115062;28;20176;-66
2022/08/03 12:58:04;;;;;;;2.78;2.30;;;38.40;83.90;;;;;;5098419;28;20204;-65
2022/08/03 13:00:30;;;;;;;2.20;2.00;;;38.00;86.20;;;;;;5107316;28;20574;-65
2022/08/03 13:03:03;;;;;;;3.65;2.40;;;37.80;86.30;;;;;;5107162;28;20181;-65
2022/08/03 13:05:29;;;;;;;4.25;2.30;;;37.70;88.60;;;;;;5098443;28;20169;-64